Terminal Aerodrome Forecast
Issued by NWS

Home | Current Version | Previous Version | Text Only | Print | Product List | Glossary On
Versions: 1 2 3 4 5 6 7 8 9 10 11 12 13 14 15 16 17 18 19 20 21
000
FTUS44 KLZK 281139
TAFLIT
TAF
KLIT 281139Z 2812/0112 14003KT 2SM BR OVC006
      TEMPO 2812/2815 1SM -DZ OVC004
     FM281600 17008KT P6SM SCT008 OVC012
     FM281800 20010KT P6SM SCT018 BKN025
     FM282000 19010G18KT P6SM FEW025 SCT035 BKN050
     FM010300 21012G22KT P6SM VCSH SCT025 BKN035 BKN080=

USA.gov is the U.S. government's official web portal to all federal, state and local government web resources and services.